sensor_id;sensor_type;location;lat;lon;timestamp;pressure;altitude;pressure_sealevel;temperature;humidity
44457;BME280;30159;49.316;8.558;2023-03-05T00:01:33;100835.56;;;5.74;96.96
44457;BME280;30159;49.316;8.558;2023-03-05T00:04:03;100836.03;;;5.70;98.50
44457;BME280;30159;49.316;8.558;2023-03-05T00:06:31;100779.91;;;5.35;99.17
44457;BME280;30159;49.316;8.558;2023-03-05T00:08:58;100840.25;;;5.66;99.28
44457;BME280;30159;49.316;8.558;2023-03-05T00:11:26;100836.63;;;5.61;100.00
44457;BME280;30159;49.316;8.558;2023-03-05T00:13:54;100838.00;;;5.63;99.81
44457;BME280;30159;49.316;8.558;2023-03-05T00:16:22;100826.50;;;5.63;100.00
44457;BME280;30159;49.316;8.558;2023-03-05T00:18:51;100828.38;;;5.62;100.00
44457;BME280;30159;49.316;8.558;2023-03-05T00:21:19;100820.34;;;5.62;100.00
44457;BME280;30159;49.316;8.558;2023-03-05T00:23:46;100819.88;;;5.65;100.00
44457;BME280;30159;49.316;8.558;2023-03-05T00:26:15;100823.69;;;5.69;100.00
44457;BME280;30159;49.316;8.558;2023-03-05T00:28:41;100824.19;;;5.66;100.00
44457;BME280;30159;49.316;8.558;2023-03-05T00:31:08;100820.34;;;5.62;100.00
44457;BME280;30159;49.316;8.558;2023-03-05T00:33:35;100822.22;;;5.62;100.00
44457;BME280;30159;49.316;8.558;2023-03-05T00:36:05;100764.25;;;5.27;100.00
44457;BME280;30159;49.316;8.558;2023-03-05T00:38:32;100829.06;;;5.69;100.00
44457;BME280;30159;49.316;8.558;2023-03-05T00:40:58;100816.38;;;5.65;100.00
44457;BME280;30159;49.316;8.558;2023-03-05T00:43:25;100823.69;;;5.69;100.00
44457;BME280;30159;49.316;8.558;2023-03-05T00:45:52;100818.00;;;5.66;99.55
44457;BME280;30159;49.316;8.558;2023-03-05T00:48:18;100817.41;;;5.64;99.10
44457;BME280;30159;49.316;8.558;2023-03-05T00:50:48;100819.06;;;5.65;100.00
44457;BME280;30159;49.316;8.558;2023-03-05T00:53:15;100810.31;;;5.69;100.00
44457;BME280;30159;49.316;8.558;2023-03-05T00:55:41;100814.63;;;5.70;99.59
44457;BME280;30159;49.316;8.558;2023-03-05T00:58:08;100804.63;;;5.66;99.10
44457;BME280;30159;49.316;8.558;2023-03-05T01:00:35;100798.59;;;5.59;100.00
44457;BME280;30159;49.316;8.558;2023-03-05T01:03:01;100762.94;;;5.30;99.84
44457;BME280;30159;49.316;8.558;2023-03-05T01:05:28;100762.38;;;5.27;100.00
44457;BME280;30159;49.316;8.558;2023-03-05T01:07:56;100799.19;;;5.49;100.00
44457;BME280;30159;49.316;8.558;2023-03-05T01:10:23;100795.34;;;5.45;100.00
44457;BME280;30159;49.316;8.558;2023-03-05T01:12:51;100761.19;;;5.23;100.00
44457;BME280;30159;49.316;8.558;2023-03-05T01:15:17;100791.38;;;5.47;100.00
44457;BME280;30159;49.316;8.558;2023-03-05T01:17:44;100784.75;;;5.50;100.00
44457;BME280;30159;49.316;8.558;2023-03-05T01:20:11;100790.94;;;5.51;99.83
44457;BME280;30159;49.316;8.558;2023-03-05T01:22:38;100784.53;;;5.52;100.00
44457;BME280;30159;49.316;8.558;2023-03-05T01:25:07;100784.19;;;5.48;100.00
44457;BME280;30159;49.316;8.558;2023-03-05T01:27:34;100772.44;;;5.49;99.50
44457;BME280;30159;49.316;8.558;2023-03-05T01:30:01;100760.97;;;5.37;100.00
44457;BME280;30159;49.316;8.558;2023-03-05T01:32:27;100771.75;;;5.42;100.00
44457;BME280;30159;49.316;8.558;2023-03-05T01:34:54;100765.25;;;5.38;100.00
44457;BME280;30159;49.316;8.558;2023-03-05T01:37:20;100772.81;;;5.41;100.00
44457;BME280;30159;49.316;8.558;2023-03-05T01:39:47;100761.53;;;5.39;100.00
44457;BME280;30159;49.316;8.558;2023-03-05T01:42:15;100757.69;;;5.35;100.00
44457;BME280;30159;49.316;8.558;2023-03-05T01:44:59;100718.22;;;5.13;100.00
44457;BME280;30159;49.316;8.558;2023-03-05T01:47:25;100760.16;;;5.36;100.00
44457;BME280;30159;49.316;8.558;2023-03-05T01:49:52;100749.78;;;5.40;100.00
44457;BME280;30159;49.316;8.558;2023-03-05T01:52:21;100750.13;;;5.43;100.00
44457;BME280;30159;49.316;8.558;2023-03-05T01:54:49;100763.63;;;5.37;100.00
44457;BME280;30159;49.316;8.558;2023-03-05T01:57:21;100760.16;;;5.36;100.00
44457;BME280;30159;49.316;8.558;2023-03-05T01:59:50;100762.56;;;5.38;100.00
44457;BME280;30159;49.316;8.558;2023-03-05T02:02:17;100756.19;;;5.39;100.00
44457;BME280;30159;49.316;8.558;2023-03-05T02:04:49;100750.59;;;5.40;100.00
44457;BME280;30159;49.316;8.558;2023-03-05T02:07:18;100708.22;;;5.09;100.00
44457;BME280;30159;49.316;8.558;2023-03-05T02:09:46;100754.44;;;5.33;100.00
44457;BME280;30159;49.316;8.558;2023-03-05T02:12:13;100726.25;;;5.13;100.00
44457;BME280;30159;49.316;8.558;2023-03-05T02:14:44;100755.50;;;5.32;100.00
44457;BME280;30159;49.316;8.558;2023-03-05T02:17:11;100741.91;;;5.21;100.00
44457;BME280;30159;49.316;8.558;2023-03-05T02:19:49;100728.63;;;5.26;100.00
44457;BME280;30159;49.316;8.558;2023-03-05T02:22:19;100731.66;;;5.30;100.00
44457;BME280;30159;49.316;8.558;2023-03-05T02:24:46;100724.00;;;5.22;100.00
44457;BME280;30159;49.316;8.558;2023-03-05T02:27:13;100726.44;;;5.23;100.00
44457;BME280;30159;49.316;8.558;2023-03-05T02:29:43;100726.44;;;5.23;100.00
44457;BME280;30159;49.316;8.558;2023-03-05T02:32:10;100727.69;;;5.33;100.00
44457;BME280;30159;49.316;8.558;2023-03-05T02:34:37;100721.78;;;5.31;100.00
44457;BME280;30159;49.316;8.558;2023-03-05T02:37:04;100719.22;;;5.24;100.00
44457;BME280;30159;49.316;8.558;2023-03-05T02:39:34;100719.31;;;5.29;100.00
44457;BME280;30159;49.316;8.558;2023-03-05T02:42:01;100721.19;;;5.28;100.00
44457;BME280;30159;49.316;8.558;2023-03-05T02:44:27;100716.66;;;5.29;100.00
44457;BME280;30159;49.316;8.558;2023-03-05T02:46:54;100689.25;;;5.10;99.21
44457;BME280;30159;49.316;8.558;2023-03-05T02:49:20;100710.41;;;5.23;99.69
44457;BME280;30159;49.316;8.558;2023-03-05T02:51:47;100709.25;;;5.19;100.00
44457;BME280;30159;49.316;8.558;2023-03-05T02:54:13;100697.72;;;5.19;99.13
44457;BME280;30159;49.316;8.558;2023-03-05T02:56:41;100712.75;;;5.20;99.90
44457;BME280;30159;49.316;8.558;2023-03-05T02:59:08;100714.03;;;5.05;100.00
44457;BME280;30159;49.316;8.558;2023-03-05T03:01:35;100690.66;;;5.01;100.00
44457;BME280;30159;49.316;8.558;2023-03-05T03:04:01;100696.25;;;5.11;100.00
44457;BME280;30159;49.316;8.558;2023-03-05T03:06:28;100697.84;;;5.12;100.00
44457;BME280;30159;49.316;8.558;2023-03-05T03:08:54;100694.56;;;5.22;100.00
44457;BME280;30159;49.316;8.558;2023-03-05T03:11:21;100691.59;;;5.18;100.00
44457;BME280;30159;49.316;8.558;2023-03-05T03:13:49;100672.09;;;5.06;100.00
44457;BME280;30159;49.316;8.558;2023-03-05T03:16:16;100687.16;;;5.12;100.00
44457;BME280;30159;49.316;8.558;2023-03-05T03:18:43;100661.16;;;4.96;100.00
44457;BME280;30159;49.316;8.558;2023-03-05T03:21:15;100681.25;;;5.10;100.00
44457;BME280;30159;49.316;8.558;2023-03-05T03:23:42;100675.78;;;5.05;100.00
44457;BME280;30159;49.316;8.558;2023-03-05T03:26:09;100672.53;;;5.03;100.00
44457;BME280;30159;49.316;8.558;2023-03-05T03:28:35;100679.44;;;4.99;100.00
44457;BME280;30159;49.316;8.558;2023-03-05T03:31:03;100671.84;;;4.96;100.00
44457;BME280;30159;49.316;8.558;2023-03-05T03:33:30;100673.25;;;4.98;100.00
44457;BME280;30159;49.316;8.558;2023-03-05T03:35:57;100665.56;;;5.02;100.00
44457;BME280;30159;49.316;8.558;2023-03-05T03:38:23;100668.97;;;4.97;100.00
44457;BME280;30159;49.316;8.558;2023-03-05T03:40:50;100670.56;;;4.98;100.00
44457;BME280;30159;49.316;8.558;2023-03-05T03:43:16;100662.91;;;5.02;100.00
44457;BME280;30159;49.316;8.558;2023-03-05T03:45:43;100664.41;;;5.10;100.00
44457;BME280;30159;49.316;8.558;2023-03-05T03:48:11;100654.09;;;5.01;100.00
44457;BME280;30159;49.316;8.558;2023-03-05T03:50:38;100664.06;;;5.06;100.00
44457;BME280;30159;49.316;8.558;2023-03-05T03:53:04;100657.44;;;5.09;100.00
44457;BME280;30159;49.316;8.558;2023-03-05T03:55:31;100656.59;;;5.08;100.00
44457;BME280;30159;49.316;8.558;2023-03-05T03:57:57;100659.53;;;5.06;100.00
44457;BME280;30159;49.316;8.558;2023-03-05T04:00:24;100657.66;;;5.07;100.00
44457;BME280;30159;49.316;8.558;2023-03-05T04:02:50;100649.72;;;5.12;100.00
44457;BME280;30159;49.316;8.558;2023-03-05T04:05:18;100656.16;;;5.11;100.00
44457;BME280;30159;49.316;8.558;2023-03-05T04:07:45;100652.41;;;5.12;100.00
44457;BME280;30159;49.316;8.558;2023-03-05T04:10:11;100652.09;;;5.09;100.00
44457;BME280;30159;49.316;8.558;2023-03-05T04:12:38;100651.84;;;5.10;100.00
44457;BME280;30159;49.316;8.558;2023-03-05T04:15:07;100638.59;;;5.03;100.00
44457;BME280;30159;49.316;8.558;2023-03-05T04:17:34;100619.69;;;4.93;100.00
44457;BME280;30159;49.316;8.558;2023-03-05T04:20:01;100625.97;;;4.99;100.00
44457;BME280;30159;49.316;8.558;2023-03-05T04:22:30;100634.66;;;5.06;100.00
44457;BME280;30159;49.316;8.558;2023-03-05T04:24:57;100634.19;;;5.09;100.00
44457;BME280;30159;49.316;8.558;2023-03-05T04:27:23;100658.59;;;5.01;100.00
44457;BME280;30159;49.316;8.558;2023-03-05T04:29:50;100637.78;;;5.03;100.00
44457;BME280;30159;49.316;8.558;2023-03-05T04:32:16;100624.13;;;4.88;100.00
44457;BME280;30159;49.316;8.558;2023-03-05T04:34:47;100630.84;;;4.90;100.00
44457;BME280;30159;49.316;8.558;2023-03-05T04:37:13;100608.81;;;4.83;100.00
44457;BME280;30159;49.316;8.558;2023-03-05T04:39:41;100633.41;;;4.97;100.00
44457;BME280;30159;49.316;8.558;2023-03-05T04:42:08;100632.72;;;4.90;100.00
44457;BME280;30159;49.316;8.558;2023-03-05T04:44:35;100633.66;;;4.83;100.00
44457;BME280;30159;49.316;8.558;2023-03-05T04:47:02;100632.69;;;5.01;100.00
44457;BME280;30159;49.316;8.558;2023-03-05T04:49:28;100634.00;;;4.99;100.00
44457;BME280;30159;49.316;8.558;2023-03-05T04:51:55;100638.38;;;5.05;100.00
44457;BME280;30159;49.316;8.558;2023-03-05T04:54:21;100623.47;;;5.09;100.00
44457;BME280;30159;49.316;8.558;2023-03-05T04:56:50;100595.88;;;4.92;100.00
44457;BME280;30159;49.316;8.558;2023-03-05T04:59:16;100624.41;;;5.03;100.00
44457;BME280;30159;49.316;8.558;2023-03-05T05:01:43;100632.34;;;4.98;100.00
44457;BME280;30159;49.316;8.558;2023-03-05T05:04:09;100629.09;;;4.96;100.00
44457;BME280;30159;49.316;8.558;2023-03-05T05:06:35;100627.94;;;4.92;100.00
44457;BME280;30159;49.316;8.558;2023-03-05T05:09:02;100613.19;;;4.89;100.00
44457;BME280;30159;49.316;8.558;2023-03-05T05:11:29;100619.69;;;4.93;100.00
44457;BME280;30159;49.316;8.558;2023-03-05T05:13:57;100622.72;;;4.97;100.00
44457;BME280;30159;49.316;8.558;2023-03-05T05:16:23;100621.06;;;4.96;100.00
44457;BME280;30159;49.316;8.558;2023-03-05T05:18:49;100616.22;;;4.93;100.00
44457;BME280;30159;49.316;8.558;2023-03-05T05:21:16;100614.03;;;4.90;100.00
44457;BME280;30159;49.316;8.558;2023-03-05T05:23:44;100605.53;;;4.93;100.00
44457;BME280;30159;49.316;8.558;2023-03-05T05:26:11;100553.66;;;4.65;100.00
44457;BME280;30159;49.316;8.558;2023-03-05T05:28:39;100610.63;;;4.94;100.00
44457;BME280;30159;49.316;8.558;2023-03-05T05:31:10;100612.25;;;4.95;100.00
44457;BME280;30159;49.316;8.558;2023-03-05T05:33:36;100562.59;;;4.59;100.00
44457;BME280;30159;49.316;8.558;2023-03-05T05:36:03;100608.78;;;4.95;100.00
44457;BME280;30159;49.316;8.558;2023-03-05T05:38:30;100606.81;;;4.90;100.00
44457;BME280;30159;49.316;8.558;2023-03-05T05:41:01;100579.44;;;4.71;100.00
44457;BME280;30159;49.316;8.558;2023-03-05T05:43:29;100603.53;;;5.00;100.00
44457;BME280;30159;49.316;8.558;2023-03-05T05:45:58;100610.72;;;4.99;100.00
44457;BME280;30159;49.316;8.558;2023-03-05T05:48:26;100612.13;;;5.02;100.00
44457;BME280;30159;49.316;8.558;2023-03-05T05:50:53;100617.66;;;5.12;100.00
44457;BME280;30159;49.316;8.558;2023-03-05T05:53:20;100609.53;;;5.07;100.00
44457;BME280;30159;49.316;8.558;2023-03-05T05:55:46;100610.47;;;5.01;100.00
44457;BME280;30159;49.316;8.558;2023-03-05T05:58:13;100611.53;;;5.00;100.00
44457;BME280;30159;49.316;8.558;2023-03-05T06:00:39;100609.66;;;5.00;100.00
44457;BME280;30159;49.316;8.558;2023-03-05T06:03:06;100606.41;;;4.98;100.00
44457;BME280;30159;49.316;8.558;2023-03-05T06:05:34;100607.00;;;5.00;100.00
44457;BME280;30159;49.316;8.558;2023-03-05T06:08:00;100603.16;;;4.96;100.00
44457;BME280;30159;49.316;8.558;2023-03-05T06:10:27;100579.06;;;4.79;100.00
44457;BME280;30159;49.316;8.558;2023-03-05T06:12:54;100605.25;;;5.06;100.00
44457;BME280;30159;49.316;8.558;2023-03-05T06:15:20;100593.16;;;5.03;100.00
44457;BME280;30159;49.316;8.558;2023-03-05T06:17:47;100592.81;;;5.00;100.00
44457;BME280;30159;49.316;8.558;2023-03-05T06:20:13;100560.16;;;4.69;100.00
44457;BME280;30159;49.316;8.558;2023-03-05T06:22:41;100605.63;;;4.98;100.00
44457;BME280;30159;49.316;8.558;2023-03-05T06:25:08;100449.88;;;4.05;100.00
44457;BME280;30159;49.316;8.558;2023-03-05T06:27:36;100571.84;;;4.80;100.00
44457;BME280;30159;49.316;8.558;2023-03-05T06:30:03;100606.28;;;5.05;100.00
44457;BME280;30159;49.316;8.558;2023-03-05T06:32:30;100593.44;;;4.90;100.00
44457;BME280;30159;49.316;8.558;2023-03-05T06:34:57;100603.38;;;5.06;100.00
44457;BME280;30159;49.316;8.558;2023-03-05T06:37:23;100601.88;;;5.11;100.00
44457;BME280;30159;49.316;8.558;2023-03-05T06:39:51;100600.47;;;5.08;100.00
44457;BME280;30159;49.316;8.558;2023-03-05T06:42:17;100591.53;;;5.02;100.00
44457;BME280;30159;49.316;8.558;2023-03-05T06:44:44;100600.28;;;4.98;100.00
44457;BME280;30159;49.316;8.558;2023-03-05T06:47:19;100597.25;;;5.06;100.00
44457;BME280;30159;49.316;8.558;2023-03-05T06:49:45;100599.91;;;5.06;100.00
44457;BME280;30159;49.316;8.558;2023-03-05T06:52:12;100602.31;;;5.07;100.00
44457;BME280;30159;49.316;8.558;2023-03-05T06:54:38;100596.09;;;5.02;100.00
44457;BME280;30159;49.316;8.558;2023-03-05T06:57:05;100602.31;;;5.07;100.00
44457;BME280;30159;49.316;8.558;2023-03-05T06:59:32;100595.22;;;5.13;100.00
44457;BME280;30159;49.316;8.558;2023-03-05T07:01:58;100591.50;;;5.14;100.00
44457;BME280;30159;49.316;8.558;2023-03-05T07:04:26;100600.81;;;5.12;100.00
44457;BME280;30159;49.316;8.558;2023-03-05T07:06:52;100596.03;;;5.14;100.00
44457;BME280;30159;49.316;8.558;2023-03-05T07:09:20;100596.47;;;5.22;100.00
44457;BME280;30159;49.316;8.558;2023-03-05T07:11:46;100589.63;;;5.15;100.00
44457;BME280;30159;49.316;8.558;2023-03-05T07:14:13;100592.75;;;5.23;100.00
44457;BME280;30159;49.316;8.558;2023-03-05T07:16:39;100595.66;;;5.22;100.00
44457;BME280;30159;49.316;8.558;2023-03-05T07:19:06;100579.91;;;5.09;100.00
44457;BME280;30159;49.316;8.558;2023-03-05T07:21:36;100582.63;;;5.25;100.00
44457;BME280;30159;49.316;8.558;2023-03-05T07:24:03;100551.22;;;5.04;100.00
44457;BME280;30159;49.316;8.558;2023-03-05T07:26:31;100590.81;;;5.36;100.00
44457;BME280;30159;49.316;8.558;2023-03-05T07:28:59;100602.44;;;5.41;100.00
44457;BME280;30159;49.316;8.558;2023-03-05T07:31:26;100579.66;;;5.39;100.00
44457;BME280;30159;49.316;8.558;2023-03-05T07:33:55;100578.22;;;5.48;100.00
44457;BME280;30159;49.316;8.558;2023-03-05T07:36:23;100569.47;;;5.53;100.00
44457;BME280;30159;49.316;8.558;2023-03-05T07:38:50;100587.78;;;5.78;99.83
44457;BME280;30159;49.316;8.558;2023-03-05T07:41:18;100585.31;;;5.88;98.75
44457;BME280;30159;49.316;8.558;2023-03-05T07:43:46;100530.78;;;5.77;97.53
44457;BME280;30159;49.316;8.558;2023-03-05T07:46:15;100576.56;;;6.09;97.27
44457;BME280;30159;49.316;8.558;2023-03-05T07:48:42;100568.13;;;6.01;97.55
44457;BME280;30159;49.316;8.558;2023-03-05T07:51:11;100561.38;;;5.98;98.27
44457;BME280;30159;49.316;8.558;2023-03-05T07:53:39;100583.25;;;6.29;97.55
44457;BME280;30159;49.316;8.558;2023-03-05T07:56:07;100579.91;;;6.56;96.50
44457;BME280;30159;49.316;8.558;2023-03-05T07:58:34;100582.69;;;6.66;96.16
44457;BME280;30159;49.316;8.558;2023-03-05T08:01:00;100583.47;;;6.83;93.42
44457;BME280;30159;49.316;8.558;2023-03-05T08:03:27;100576.69;;;7.03;92.30
44457;BME280;30159;49.316;8.558;2023-03-05T08:05:54;100576.00;;;7.12;91.29
44457;BME280;30159;49.316;8.558;2023-03-05T08:08:20;100572.69;;;7.27;92.17
44457;BME280;30159;49.316;8.558;2023-03-05T08:10:47;100573.91;;;7.42;91.20
44457;BME280;30159;49.316;8.558;2023-03-05T08:13:14;100577.81;;;7.61;90.39
44457;BME280;30159;49.316;8.558;2023-03-05T08:15:41;100577.41;;;7.74;88.30
44457;BME280;30159;49.316;8.558;2023-03-05T08:18:07;100577.53;;;7.90;87.87
44457;BME280;30159;49.316;8.558;2023-03-05T08:20:34;100571.41;;;7.99;87.27
44457;BME280;30159;49.316;8.558;2023-03-05T08:23:01;100572.84;;;8.12;85.19
44457;BME280;30159;49.316;8.558;2023-03-05T08:25:28;100574.88;;;8.32;84.87
44457;BME280;30159;49.316;8.558;2023-03-05T08:27:55;100561.56;;;8.10;82.21
44457;BME280;30159;49.316;8.558;2023-03-05T08:30:23;100564.94;;;7.31;84.43
44457;BME280;30159;49.316;8.558;2023-03-05T08:32:51;100565.75;;;6.82;87.91
44457;BME280;30159;49.316;8.558;2023-03-05T08:35:18;100519.53;;;6.31;89.90
44457;BME280;30159;49.316;8.558;2023-03-05T08:37:45;100554.66;;;6.51;91.34
44457;BME280;30159;49.316;8.558;2023-03-05T08:40:12;100562.63;;;6.46;92.13
44457;BME280;30159;49.316;8.558;2023-03-05T08:42:38;100558.13;;;6.96;92.13
44457;BME280;30159;49.316;8.558;2023-03-05T08:45:06;100549.03;;;7.24;88.76
44457;BME280;30159;49.316;8.558;2023-03-05T08:47:34;100561.13;;;7.54;87.31
44457;BME280;30159;49.316;8.558;2023-03-05T08:50:01;100555.41;;;7.77;85.99
44457;BME280;30159;49.316;8.558;2023-03-05T08:52:27;100562.91;;;7.75;85.72
44457;BME280;30159;49.316;8.558;2023-03-05T08:54:54;100552.59;;;7.62;85.04
44457;BME280;30159;49.316;8.558;2023-03-05T08:57:20;100546.75;;;7.38;85.56
44457;BME280;30159;49.316;8.558;2023-03-05T08:59:47;100553.47;;;7.41;85.26
44457;BME280;30159;49.316;8.558;2023-03-05T09:02:14;100554.78;;;7.11;86.62
44457;BME280;30159;49.316;8.558;2023-03-05T09:04:42;100556.22;;;7.18;87.47
44457;BME280;30159;49.316;8.558;2023-03-05T09:07:08;100515.69;;;7.15;87.47
44457;BME280;30159;49.316;8.558;2023-03-05T09:09:35;100552.66;;;7.13;86.45
44457;BME280;30159;49.316;8.558;2023-03-05T09:12:02;100556.78;;;6.71;88.28
44457;BME280;30159;49.316;8.558;2023-03-05T09:14:29;100546.84;;;6.50;91.12
44457;BME280;30159;49.316;8.558;2023-03-05T09:16:56;100545.78;;;6.73;90.17
44457;BME280;30159;49.316;8.558;2023-03-05T09:19:23;100524.25;;;6.63;88.97
44457;BME280;30159;49.316;8.558;2023-03-05T09:21:51;100537.66;;;7.12;87.77
44457;BME280;30159;49.316;8.558;2023-03-05T09:24:17;100536.94;;;7.22;86.71
44457;BME280;30159;49.316;8.558;2023-03-05T09:26:44;100539.78;;;7.69;87.40
44457;BME280;30159;49.316;8.558;2023-03-05T09:29:10;100505.31;;;7.56;83.97
44457;BME280;30159;49.316;8.558;2023-03-05T09:31:37;100527.44;;;7.73;84.21
44457;BME280;30159;49.316;8.558;2023-03-05T09:34:05;100531.84;;;7.52;85.33
44457;BME280;30159;49.316;8.558;2023-03-05T09:36:33;100527.28;;;7.53;84.15
44457;BME280;30159;49.316;8.558;2023-03-05T09:39:01;100519.69;;;7.77;85.00
44457;BME280;30159;49.316;8.558;2023-03-05T09:41:35;100478.97;;;7.53;83.20
44457;BME280;30159;49.316;8.558;2023-03-05T09:44:15;100517.75;;;7.67;83.23
44457;BME280;30159;49.316;8.558;2023-03-05T09:46:51;100511.19;;;7.53;83.31
44457;BME280;30159;49.316;8.558;2023-03-05T09:49:29;100506.31;;;7.50;83.92
44457;BME280;30159;49.316;8.558;2023-03-05T09:52:02;100520.09;;;7.26;84.40
44457;BME280;30159;49.316;8.558;2023-03-05T09:54:36;100519.69;;;7.12;84.67
44457;BME280;30159;49.316;8.558;2023-03-05T09:57:11;100494.66;;;7.02;84.47
44457;BME280;30159;49.316;8.558;2023-03-05T09:59:45;100515.06;;;7.08;82.61
44457;BME280;30159;49.316;8.558;2023-03-05T10:02:17;100514.72;;;6.99;78.64
44457;BME280;30159;49.316;8.558;2023-03-05T10:04:47;100511.88;;;6.84;77.88
44457;BME280;30159;49.316;8.558;2023-03-05T10:07:18;100511.13;;;6.88;77.90
44457;BME280;30159;49.316;8.558;2023-03-05T10:09:49;100477.44;;;6.48;77.68
44457;BME280;30159;49.316;8.558;2023-03-05T10:12:19;100511.03;;;6.56;77.28
44457;BME280;30159;49.316;8.558;2023-03-05T10:14:49;100507.72;;;6.49;78.03
44457;BME280;30159;49.316;8.558;2023-03-05T10:17:32;100486.22;;;6.22;76.92
44457;BME280;30159;49.316;8.558;2023-03-05T10:20:34;100492.81;;;6.36;76.30
44457;BME280;30159;49.316;8.558;2023-03-05T10:23:27;100494.72;;;6.58;75.95
44457;BME280;30159;49.316;8.558;2023-03-05T10:26:07;100495.88;;;6.67;76.42
44457;BME280;30159;49.316;8.558;2023-03-05T10:28:42;100490.13;;;6.80;76.11
44457;BME280;30159;49.316;8.558;2023-03-05T10:31:26;100483.78;;;6.64;75.55
44457;BME280;30159;49.316;8.558;2023-03-05T10:34:11;100491.28;;;6.62;77.80
44457;BME280;30159;49.316;8.558;2023-03-05T10:36:53;100408.53;;;6.22;76.96
44457;BME280;30159;49.316;8.558;2023-03-05T10:39:48;100478.03;;;6.78;77.76
44457;BME280;30159;49.316;8.558;2023-03-05T10:42:27;100460.81;;;6.73;78.27
44457;BME280;30159;49.316;8.558;2023-03-05T10:44:57;100477.03;;;6.84;77.48
44457;BME280;30159;49.316;8.558;2023-03-05T10:47:27;100473.97;;;6.75;77.32
44457;BME280;30159;49.316;8.558;2023-03-05T10:49:56;100468.59;;;6.97;78.49
44457;BME280;30159;49.316;8.558;2023-03-05T10:52:28;100475.41;;;7.10;74.97
44457;BME280;30159;49.316;8.558;2023-03-05T10:54:56;100475.97;;;7.12;74.77
44457;BME280;30159;49.316;8.558;2023-03-05T10:57:25;100440.25;;;7.06;74.99
44457;BME280;30159;49.316;8.558;2023-03-05T10:59:53;100468.72;;;7.12;73.55
44457;BME280;30159;49.316;8.558;2023-03-05T11:02:23;100465.50;;;6.83;73.57
44457;BME280;30159;49.316;8.558;2023-03-05T11:04:50;100467.34;;;6.56;74.04
44457;BME280;30159;49.316;8.558;2023-03-05T11:07:34;100458.59;;;6.43;73.98
44457;BME280;30159;49.316;8.558;2023-03-05T11:10:13;100455.56;;;6.57;74.25
44457;BME280;30159;49.316;8.558;2023-03-05T11:12:42;100450.31;;;6.67;73.96
44457;BME280;30159;49.316;8.558;2023-03-05T11:15:24;100444.06;;;6.83;73.32
44457;BME280;30159;49.316;8.558;2023-03-05T11:18:17;100443.19;;;6.78;71.55
44457;BME280;30159;49.316;8.558;2023-03-05T11:20:45;100445.38;;;6.81;70.65
44457;BME280;30159;49.316;8.558;2023-03-05T11:23:13;100444.94;;;6.94;71.49
44457;BME280;30159;49.316;8.558;2023-03-05T11:25:57;100417.72;;;6.80;71.15
44457;BME280;30159;49.316;8.558;2023-03-05T11:28:29;100436.78;;;6.79;70.67
44457;BME280;30159;49.316;8.558;2023-03-05T11:31:01;100395.19;;;6.49;70.93
44457;BME280;30159;49.316;8.558;2023-03-05T11:33:30;100434.13;;;6.84;71.26
44457;BME280;30159;49.316;8.558;2023-03-05T11:36:21;100430.34;;;7.07;69.90
44457;BME280;30159;49.316;8.558;2023-03-05T11:38:51;100429.47;;;7.01;69.08
44457;BME280;30159;49.316;8.558;2023-03-05T11:41:24;100421.53;;;7.11;71.17
44457;BME280;30159;49.316;8.558;2023-03-05T11:43:54;100432.81;;;7.51;71.05
44457;BME280;30159;49.316;8.558;2023-03-05T11:46:21;100420.53;;;7.60;68.69
44457;BME280;30159;49.316;8.558;2023-03-05T11:48:48;100426.59;;;7.45;67.73
44457;BME280;30159;49.316;8.558;2023-03-05T11:51:19;100416.41;;;7.10;68.58
44457;BME280;30159;49.316;8.558;2023-03-05T11:53:49;100413.69;;;7.05;71.05
44457;BME280;30159;49.316;8.558;2023-03-05T11:56:20;100413.16;;;7.08;69.74
44457;BME280;30159;49.316;8.558;2023-03-05T11:58:50;100401.91;;;7.11;70.53
44457;BME280;30159;49.316;8.558;2023-03-05T12:01:23;100405.91;;;7.41;69.48
44457;BME280;30159;49.316;8.558;2023-03-05T12:03:51;100371.00;;;7.35;68.69
44457;BME280;30159;49.316;8.558;2023-03-05T12:06:26;100402.69;;;7.86;70.67
44457;BME280;30159;49.316;8.558;2023-03-05T12:08:55;100390.50;;;8.31;69.18
44457;BME280;30159;49.316;8.558;2023-03-05T12:11:25;100379.72;;;8.16;66.97
44457;BME280;30159;49.316;8.558;2023-03-05T12:13:55;100386.34;;;7.93;68.50
44457;BME280;30159;49.316;8.558;2023-03-05T12:16:32;100378.63;;;8.12;67.49
44457;BME280;30159;49.316;8.558;2023-03-05T12:19:28;100376.59;;;8.44;68.28
44457;BME280;30159;49.316;8.558;2023-03-05T12:21:57;100367.22;;;8.57;66.01
44457;BME280;30159;49.316;8.558;2023-03-05T12:24:39;100364.41;;;8.21;67.11
44457;BME280;30159;49.316;8.558;2023-03-05T12:27:11;100366.63;;;8.35;67.83
44457;BME280;30159;49.316;8.558;2023-03-05T12:29:45;100352.41;;;8.50;67.76
44457;BME280;30159;49.316;8.558;2023-03-05T12:35:33;100346.78;;;8.67;68.92
44457;BME280;30159;49.316;8.558;2023-03-05T12:38:26;100339.56;;;8.72;67.48
44457;BME280;30159;49.316;8.558;2023-03-05T12:41:31;100331.47;;;8.82;67.46
44457;BME280;30159;49.316;8.558;2023-03-05T12:44:22;100327.72;;;8.68;66.39
44457;BME280;30159;49.316;8.558;2023-03-05T12:47:13;100324.22;;;8.62;66.48
44457;BME280;30159;49.316;8.558;2023-03-05T12:49:44;100323.69;;;8.71;68.42
44457;BME280;30159;49.316;8.558;2023-03-05T12:52:21;100254.28;;;8.37;67.28
44457;BME280;30159;49.316;8.558;2023-03-05T12:54:58;100320.44;;;8.94;67.57
44457;BME280;30159;49.316;8.558;2023-03-05T12:57:27;100322.03;;;8.90;67.26
44457;BME280;30159;49.316;8.558;2023-03-05T12:59:59;100323.41;;;8.62;65.64
44457;BME280;30159;49.316;8.558;2023-03-05T13:02:31;100304.25;;;8.33;66.97
44457;BME280;30159;49.316;8.558;2023-03-05T13:05:04;100312.28;;;8.22;65.53
44457;BME280;30159;49.316;8.558;2023-03-05T13:07:34;100305.84;;;8.23;65.31
44457;BME280;30159;49.316;8.558;2023-03-05T13:10:01;100305.22;;;7.86;63.83